RNR224 LOWK-LOWS
Flight info
| Callsign | RNR224 |
|---|---|
| Flight time | 0h 33m |
| Altitude | 16000 |
| Route | INGID DCT ETROK |
| Aircraft | B738/M-SDE2E3FGHIRWXY/LB1 |
Departure
| Time | 2026-04-26 20:31 |
|---|---|
| Airport | Klagenfurt Airport (LOWK) |
Arrival
| Time | 2026-04-26 21:04 |
|---|---|
| Airport | Salzburg Airport (LOWS) |
| Time | Latitude | Longitude | Altitude | Speed | Heading |
|---|---|---|---|---|---|
| 2026-04-26 20:04 | 46.64861 | 14.32699 | 1478 ft | 0 kts | 77° |
| 2026-04-26 20:23 | 46.64859 | 14.32688 | 1478 ft | 2 kts | 77° |
| 2026-04-26 20:23 | 46.64856 | 14.32665 | 1478 ft | 2 kts | 77° |
| 2026-04-26 20:23 | 46.64852 | 14.32642 | 1478 ft | 2 kts | 77° |
| 2026-04-26 20:24 | 46.64849 | 14.32620 | 1478 ft | 2 kts | 77° |
| 2026-04-26 20:24 | 46.64845 | 14.32598 | 1478 ft | 2 kts | 77° |
| 2026-04-26 20:24 | 46.64842 | 14.32575 | 1478 ft | 2 kts | 77° |
| 2026-04-26 20:24 | 46.64838 | 14.32552 | 1478 ft | 2 kts | 77° |
| 2026-04-26 20:25 | 46.64835 | 14.32530 | 1478 ft | 2 kts | 77° |
| 2026-04-26 20:25 | 46.64833 | 14.32515 | 1478 ft | 2 kts | 77° |
| 2026-04-26 20:25 | 46.64828 | 14.32485 | 1478 ft | 2 kts | 89° |
| 2026-04-26 20:25 | 46.64832 | 14.32467 | 1478 ft | 2 kts | 138° |
| 2026-04-26 20:26 | 46.64846 | 14.32458 | 1478 ft | 2 kts | 166° |
| 2026-04-26 20:26 | 46.64860 | 14.32453 | 1478 ft | 0 kts | 165° |
| 2026-04-26 20:28 | 46.64844 | 14.32459 | 1478 ft | 5 kts | 165° |
| 2026-04-26 20:28 | 46.64798 | 14.32467 | 1478 ft | 9 kts | 179° |
| 2026-04-26 20:28 | 46.64722 | 14.32460 | 1478 ft | 13 kts | 187° |
| 2026-04-26 20:28 | 46.64622 | 14.32429 | 1478 ft | 16 kts | 195° |
| 2026-04-26 20:29 | 46.64549 | 14.32394 | 1478 ft | 8 kts | 226° |
| 2026-04-26 20:29 | 46.64551 | 14.32294 | 1478 ft | 12 kts | 283° |
| 2026-04-26 20:29 | 46.64602 | 14.32187 | 1478 ft | 15 kts | 312° |
| 2026-04-26 20:29 | 46.64602 | 14.32092 | 1478 ft | 9 kts | 179° |
| 2026-04-26 20:30 | 46.64580 | 14.32143 | 1478 ft | 0 kts | 105° |
| 2026-04-26 20:30 | 46.64571 | 14.32187 | 1478 ft | 12 kts | 105° |
| 2026-04-26 20:30 | 46.64484 | 14.32626 | 1478 ft | 84 kts | 107° |
| 2026-04-26 20:30 | 46.64252 | 14.33781 | 1480 ft | 152 kts | 106° |
| 2026-04-26 20:31 | 46.63942 | 14.35337 | 2085 ft | 165 kts | 106° |
| 2026-04-26 20:31 | 46.63618 | 14.36980 | 2918 ft | 173 kts | 106° |
| 2026-04-26 20:31 | 46.63285 | 14.38708 | 3731 ft | 180 kts | 105° |
| 2026-04-26 20:31 | 46.62951 | 14.40493 | 4526 ft | 185 kts | 105° |
| 2026-04-26 20:32 | 46.62761 | 14.41536 | 5005 ft | 187 kts | 104° |
| 2026-04-26 20:34 | 46.62510 | 14.42943 | 5828 ft | 173 kts | 102° |
| 2026-04-26 20:35 | 46.62287 | 14.44644 | 6641 ft | 180 kts | 90° |
| 2026-04-26 20:35 | 46.62699 | 14.46461 | 7006 ft | 207 kts | 59° |
| 2026-04-26 20:35 | 46.63873 | 14.47894 | 7348 ft | 239 kts | 29° |
| 2026-04-26 20:35 | 46.65594 | 14.48421 | 7837 ft | 269 kts | 3° |
| 2026-04-26 20:36 | 46.67447 | 14.47759 | 8785 ft | 279 kts | 339° |
| 2026-04-26 20:36 | 46.69071 | 14.46262 | 9882 ft | 282 kts | 324° |
| 2026-04-26 20:36 | 46.70554 | 14.44331 | 10734 ft | 292 kts | 323° |
| 2026-04-26 20:36 | 46.72145 | 14.42311 | 11165 ft | 315 kts | 322° |
| 2026-04-26 20:37 | 46.73833 | 14.40134 | 11740 ft | 328 kts | 321° |
| 2026-04-26 20:37 | 46.75534 | 14.37934 | 12792 ft | 326 kts | 321° |
| 2026-04-26 20:37 | 46.77219 | 14.35750 | 13940 ft | 321 kts | 320° |
| 2026-04-26 20:37 | 46.78875 | 14.33601 | 14965 ft | 319 kts | 319° |
| 2026-04-26 20:38 | 46.80537 | 14.31443 | 15578 ft | 320 kts | 319° |
| 2026-04-26 20:38 | 46.82180 | 14.29309 | 15891 ft | 319 kts | 319° |
| 2026-04-26 20:38 | 46.83824 | 14.27141 | 15996 ft | 318 kts | 317° |
| 2026-04-26 20:38 | 46.85462 | 14.24932 | 15999 ft | 316 kts | 317° |
| 2026-04-26 20:39 | 46.87070 | 14.22759 | 16000 ft | 313 kts | 317° |
| 2026-04-26 20:39 | 46.88130 | 14.21325 | 16000 ft | 313 kts | 317° |
| 2026-04-26 20:39 | 46.90248 | 14.18458 | 16000 ft | 314 kts | 317° |
| 2026-04-26 20:39 | 46.91858 | 14.16275 | 16000 ft | 313 kts | 317° |
| 2026-04-26 20:40 | 46.93452 | 14.14114 | 16000 ft | 313 kts | 317° |
| 2026-04-26 20:40 | 46.95051 | 14.11941 | 16000 ft | 313 kts | 317° |
| 2026-04-26 20:40 | 46.96650 | 14.09769 | 16000 ft | 313 kts | 317° |
| 2026-04-26 20:40 | 46.98246 | 14.07598 | 16000 ft | 313 kts | 317° |
| 2026-04-26 20:41 | 46.99847 | 14.05418 | 16000 ft | 313 kts | 317° |
| 2026-04-26 20:41 | 47.01428 | 14.03265 | 16000 ft | 313 kts | 317° |
| 2026-04-26 20:41 | 47.03033 | 14.01079 | 16000 ft | 313 kts | 317° |
| 2026-04-26 20:41 | 47.04656 | 13.98908 | 16000 ft | 313 kts | 317° |
| 2026-04-26 20:42 | 47.06234 | 13.96786 | 16000 ft | 313 kts | 317° |
| 2026-04-26 20:42 | 47.07839 | 13.94616 | 16000 ft | 313 kts | 317° |
| 2026-04-26 20:42 | 47.09443 | 13.92438 | 16000 ft | 313 kts | 317° |
| 2026-04-26 20:42 | 47.11043 | 13.90257 | 16000 ft | 313 kts | 317° |
| 2026-04-26 20:43 | 47.12638 | 13.88079 | 16000 ft | 313 kts | 317° |
| 2026-04-26 20:43 | 47.14233 | 13.85894 | 16000 ft | 313 kts | 317° |
| 2026-04-26 20:43 | 47.15824 | 13.83710 | 16000 ft | 313 kts | 317° |
| 2026-04-26 20:43 | 47.17413 | 13.81527 | 16000 ft | 313 kts | 317° |
| 2026-04-26 20:44 | 47.19003 | 13.79340 | 16000 ft | 313 kts | 317° |
| 2026-04-26 20:44 | 47.20595 | 13.77148 | 16000 ft | 313 kts | 317° |
| 2026-04-26 20:44 | 47.22189 | 13.74952 | 16000 ft | 313 kts | 317° |
| 2026-04-26 20:44 | 47.23764 | 13.72782 | 15999 ft | 307 kts | 317° |
| 2026-04-26 20:45 | 47.25311 | 13.70651 | 15999 ft | 303 kts | 317° |
| 2026-04-26 20:45 | 47.26840 | 13.68541 | 15999 ft | 299 kts | 317° |
| 2026-04-26 20:45 | 47.28421 | 13.66549 | 16000 ft | 298 kts | 321° |
| 2026-04-26 20:45 | 47.30049 | 13.64739 | 15875 ft | 297 kts | 323° |
| 2026-04-26 20:46 | 47.31745 | 13.62933 | 15667 ft | 294 kts | 324° |
| 2026-04-26 20:46 | 47.33387 | 13.61168 | 15410 ft | 291 kts | 324° |
| 2026-04-26 20:46 | 47.34986 | 13.59429 | 15139 ft | 288 kts | 324° |
| 2026-04-26 20:46 | 47.36586 | 13.57674 | 14859 ft | 285 kts | 324° |
| 2026-04-26 20:47 | 47.38166 | 13.55930 | 14579 ft | 283 kts | 324° |
| 2026-04-26 20:47 | 47.39225 | 13.54756 | 14391 ft | 281 kts | 324° |
| 2026-04-26 20:47 | 47.41285 | 13.52463 | 14021 ft | 278 kts | 324° |
| 2026-04-26 20:47 | 47.42824 | 13.50745 | 13744 ft | 276 kts | 325° |
| 2026-04-26 20:48 | 47.44350 | 13.49036 | 13468 ft | 275 kts | 325° |
| 2026-04-26 20:48 | 47.45872 | 13.47329 | 13194 ft | 273 kts | 325° |
| 2026-04-26 20:48 | 47.47380 | 13.45636 | 12921 ft | 272 kts | 326° |
| 2026-04-26 20:48 | 47.48902 | 13.43925 | 12649 ft | 278 kts | 326° |
| 2026-04-26 20:49 | 47.50460 | 13.42174 | 12370 ft | 284 kts | 326° |
| 2026-04-26 20:49 | 47.52049 | 13.40388 | 12086 ft | 288 kts | 326° |
| 2026-04-26 20:49 | 47.53650 | 13.38589 | 11799 ft | 291 kts | 327° |
| 2026-04-26 20:49 | 47.55315 | 13.36939 | 11513 ft | 290 kts | 332° |
| 2026-04-26 20:50 | 47.57046 | 13.35439 | 11226 ft | 287 kts | 334° |
| 2026-04-26 20:50 | 47.58796 | 13.34009 | 10942 ft | 286 kts | 335° |
| 2026-04-26 20:50 | 47.60535 | 13.32596 | 10660 ft | 287 kts | 335° |
| 2026-04-26 20:50 | 47.62274 | 13.31174 | 10436 ft | 286 kts | 335° |
| 2026-04-26 20:51 | 47.64006 | 13.29749 | 10270 ft | 281 kts | 335° |
| 2026-04-26 20:51 | 47.65702 | 13.28347 | 10121 ft | 274 kts | 335° |
| 2026-04-26 20:51 | 47.67361 | 13.26972 | 9911 ft | 272 kts | 335° |
| 2026-04-26 20:51 | 47.69006 | 13.25602 | 9671 ft | 270 kts | 335° |
| 2026-04-26 20:52 | 47.70092 | 13.24706 | 9505 ft | 270 kts | 335° |
| 2026-04-26 20:52 | 47.71736 | 13.23353 | 9248 ft | 271 kts | 335° |
| 2026-04-26 20:52 | 47.73386 | 13.21988 | 8985 ft | 271 kts | 335° |
| 2026-04-26 20:52 | 47.74476 | 13.21082 | 8809 ft | 271 kts | 335° |
| 2026-04-26 20:53 | 47.77229 | 13.18783 | 8393 ft | 269 kts | 335° |
| 2026-04-26 20:53 | 47.78801 | 13.17465 | 8290 ft | 255 kts | 335° |
| 2026-04-26 20:53 | 47.80310 | 13.16198 | 8192 ft | 243 kts | 335° |
| 2026-04-26 20:53 | 47.81750 | 13.14986 | 8122 ft | 233 kts | 335° |
| 2026-04-26 20:54 | 47.83144 | 13.13811 | 7946 ft | 229 kts | 335° |
| 2026-04-26 20:54 | 47.84535 | 13.12637 | 7650 ft | 231 kts | 335° |
| 2026-04-26 20:54 | 47.85759 | 13.11604 | 7407 ft | 231 kts | 335° |
| 2026-04-26 20:54 | 47.87154 | 13.10424 | 7136 ft | 232 kts | 335° |
| 2026-04-26 20:55 | 47.88559 | 13.09236 | 6864 ft | 232 kts | 335° |
| 2026-04-26 20:55 | 47.89964 | 13.08046 | 6592 ft | 232 kts | 335° |
| 2026-04-26 20:55 | 47.91364 | 13.06860 | 6375 ft | 229 kts | 335° |
| 2026-04-26 20:55 | 47.92748 | 13.05689 | 6083 ft | 231 kts | 334° |
| 2026-04-26 20:56 | 47.94203 | 13.04456 | 5365 ft | 250 kts | 332° |
| 2026-04-26 20:56 | 47.95726 | 13.03202 | 5127 ft | 247 kts | 333° |
| 2026-04-26 20:56 | 47.97184 | 13.01956 | 5033 ft | 237 kts | 324° |
| 2026-04-26 20:56 | 47.98081 | 13.00000 | 4967 ft | 228 kts | 285° |
| 2026-04-26 20:57 | 47.97954 | 12.97715 | 4968 ft | 223 kts | 246° |
| 2026-04-26 20:57 | 47.96901 | 12.96099 | 4974 ft | 221 kts | 206° |
| 2026-04-26 20:57 | 47.95422 | 12.95865 | 4996 ft | 214 kts | 165° |
| 2026-04-26 20:57 | 47.94222 | 12.97018 | 5033 ft | 204 kts | 133° |
| 2026-04-26 20:58 | 47.93282 | 12.98594 | 5042 ft | 201 kts | 132° |
| 2026-04-26 20:58 | 47.92296 | 13.00017 | 5020 ft | 199 kts | 137° |
| 2026-04-26 20:58 | 47.91587 | 13.00877 | 5007 ft | 193 kts | 142° |
| 2026-04-26 20:58 | 47.90511 | 13.01963 | 5009 ft | 183 kts | 146° |
| 2026-04-26 20:59 | 47.89443 | 13.02938 | 5003 ft | 172 kts | 148° |
| 2026-04-26 20:59 | 47.88434 | 13.03837 | 4987 ft | 167 kts | 148° |
| 2026-04-26 20:59 | 47.87036 | 13.04700 | 4857 ft | 163 kts | 164° |
| 2026-04-26 20:59 | 47.86303 | 13.04948 | 4734 ft | 160 kts | 168° |
| 2026-04-26 21:00 | 47.85238 | 13.05257 | 4553 ft | 153 kts | 169° |
| 2026-04-26 21:00 | 47.84205 | 13.05553 | 4302 ft | 149 kts | 169° |
| 2026-04-26 21:00 | 47.83202 | 13.05847 | 4091 ft | 146 kts | 169° |
| 2026-04-26 21:00 | 47.82209 | 13.06140 | 3898 ft | 145 kts | 168° |
| 2026-04-26 21:01 | 47.81216 | 13.06438 | 3705 ft | 145 kts | 168° |
| 2026-04-26 21:01 | 47.80228 | 13.06734 | 3511 ft | 145 kts | 168° |
| 2026-04-26 21:01 | 47.79242 | 13.07030 | 3317 ft | 144 kts | 168° |
| 2026-04-26 21:01 | 47.78259 | 13.07324 | 3123 ft | 144 kts | 168° |
| 2026-04-26 21:02 | 47.77268 | 13.07500 | 2920 ft | 143 kts | 179° |
| 2026-04-26 21:02 | 47.76282 | 13.07317 | 2731 ft | 143 kts | 193° |
| 2026-04-26 21:02 | 47.75428 | 13.06594 | 2513 ft | 143 kts | 224° |
| 2026-04-26 21:02 | 47.74956 | 13.05313 | 2367 ft | 143 kts | 253° |
| 2026-04-26 21:03 | 47.75024 | 13.03873 | 2205 ft | 142 kts | 289° |
| 2026-04-26 21:03 | 47.75607 | 13.02730 | 2037 ft | 143 kts | 323° |
| 2026-04-26 21:03 | 47.76518 | 13.02178 | 1901 ft | 141 kts | 338° |
| 2026-04-26 21:03 | 47.77422 | 13.01604 | 1747 ft | 141 kts | 338° |
| 2026-04-26 21:04 | 47.78327 | 13.01037 | 1488 ft | 143 kts | 336° |
| 2026-04-26 21:04 | 47.78935 | 13.00648 | 1420 ft | 137 kts | 336° |
| 2026-04-26 21:04 | 47.79612 | 13.00228 | 1419 ft | 15 kts | 336° |
| 2026-04-26 21:04 | 47.79670 | 13.00186 | 1419 ft | 18 kts | 331° |
| 2026-04-26 21:05 | 47.79801 | 13.00101 | 1419 ft | 19 kts | 337° |
| 2026-04-26 21:05 | 47.79908 | 13.00034 | 1419 ft | 14 kts | 337° |
| 2026-04-26 21:05 | 47.79982 | 12.99988 | 1419 ft | 9 kts | 337° |
| 2026-04-26 21:05 | 47.80045 | 12.99947 | 1419 ft | 13 kts | 335° |
| 2026-04-26 21:06 | 47.76620 | 13.07418 | 2798 ft | 143 kts | 188° |
| 2026-04-26 21:06 | 47.76226 | 13.07295 | 2718 ft | 143 kts | 194° |
| 2026-04-26 21:07 | 47.75553 | 13.06771 | 2545 ft | 143 kts | 218° |
| 2026-04-26 21:07 | 47.75007 | 13.05558 | 2396 ft | 142 kts | 248° |
| 2026-04-26 21:07 | 47.74968 | 13.04106 | 2226 ft | 142 kts | 283° |
| 2026-04-26 21:07 | 47.75482 | 13.02870 | 2073 ft | 143 kts | 316° |
| 2026-04-26 21:08 | 47.76373 | 13.02266 | 1927 ft | 141 kts | 340° |
| 2026-04-26 21:08 | 47.77277 | 13.01688 | 1766 ft | 141 kts | 339° |
| 2026-04-26 21:08 | 47.78187 | 13.01127 | 1534 ft | 143 kts | 336° |
| 2026-04-26 21:08 | 47.79079 | 13.00556 | 1420 ft | 128 kts | 337° |
| 2026-04-26 21:09 | 47.80145 | 12.99879 | 1419 ft | 24 kts | 335° |
| 2026-04-26 21:09 | 47.80264 | 12.99797 | 1419 ft | 11 kts | 327° |
| 2026-04-26 21:09 | 47.80268 | 12.99675 | 1419 ft | 16 kts | 243° |
| 2026-04-26 21:09 | 47.80168 | 12.99654 | 1419 ft | 17 kts | 156° |
| 2026-04-26 21:10 | 47.80046 | 12.99733 | 1419 ft | 21 kts | 156° |
| 2026-04-26 21:10 | 47.79905 | 12.99824 | 1419 ft | 23 kts | 156° |
| 2026-04-26 21:10 | 47.79821 | 12.99863 | 1419 ft | 10 kts | 206° |
| 2026-04-26 21:10 | 47.79782 | 12.99790 | 1419 ft | 7 kts | 208° |
| 2026-04-26 21:11 | 47.79736 | 12.99803 | 1419 ft | 7 kts | 161° |
| 2026-04-26 21:11 | 47.79717 | 12.99830 | 1419 ft | 0 kts | 94° |
| 2026-04-26 21:11 | 47.79717 | 12.99834 | 1419 ft | 0 kts | 94° |
| 2026-04-26 21:11 | 47.79714 | 12.99849 | 1419 ft | 3 kts | 121° |
| 2026-04-26 21:12 | 47.79702 | 12.99859 | 1419 ft | 1 kts | 168° |
| 2026-04-26 21:12 | 47.79698 | 12.99859 | 1419 ft | 1 kts | 177° |
| 2026-04-26 21:12 | 47.79672 | 12.99844 | 1419 ft | 7 kts | 195° |
| 2026-04-26 21:12 | 47.79653 | 12.99876 | 1419 ft | 5 kts | 74° |
| 2026-04-26 21:13 | 47.79651 | 12.99925 | 1419 ft | 8 kts | 144° |
| 2026-04-26 21:13 | 47.79599 | 12.99872 | 1419 ft | 11 kts | 239° |
| 2026-04-26 21:13 | 47.79559 | 12.99786 | 1419 ft | 9 kts | 186° |
| 2026-04-26 21:13 | 47.79543 | 12.99791 | 1419 ft | 0 kts | 158° |
| 2026-04-26 21:14 | 47.79542 | 12.99792 | 1419 ft | 0 kts | 156° |